createdAt,value
2019-05-18T00:04:46.523Z,2.80
2019-05-18T00:09:51.783Z,2.90
2019-05-18T00:14:55.148Z,3.00
2019-05-18T00:19:58.428Z,2.80
2019-05-18T00:25:01.727Z,3.47
2019-05-18T00:30:06.970Z,2.40
2019-05-18T00:35:10.427Z,3.13
2019-05-18T00:40:13.849Z,3.37
2019-05-18T00:45:17.462Z,3.57
2019-05-18T00:50:20.825Z,2.85
2019-05-18T00:55:24.127Z,3.20
2019-05-18T01:00:27.422Z,3.43
2019-05-18T01:05:30.768Z,2.80
2019-05-18T01:10:34.050Z,3.50
2019-05-18T01:15:37.385Z,2.70
2019-05-18T01:20:40.757Z,3.07
2019-05-18T01:25:44.715Z,3.27
2019-05-18T01:30:48.035Z,2.60
2019-05-18T01:35:51.329Z,3.58
2019-05-18T01:40:54.609Z,2.87
2019-05-18T01:45:58.008Z,3.10
2019-05-18T01:51:01.389Z,3.55
2019-05-18T01:56:04.739Z,2.87
2019-05-18T02:01:08.097Z,2.77
2019-05-18T02:06:11.473Z,3.77
2019-05-18T02:11:14.763Z,3.60
2019-05-18T02:16:18.097Z,3.17
2019-05-18T02:21:21.464Z,3.90
2019-05-18T02:26:24.853Z,3.07
2019-05-18T02:31:28.161Z,3.27
2019-05-18T02:36:31.481Z,2.80
2019-05-18T02:41:34.860Z,2.50
2019-05-18T02:46:38.169Z,3.20
2019-05-18T02:51:41.489Z,2.93
2019-05-18T02:56:44.817Z,3.30
2019-05-18T03:01:48.121Z,2.87
2019-05-18T03:06:51.479Z,3.13
2019-05-18T03:11:54.867Z,4.07
2019-05-18T03:16:58.229Z,3.80
2019-05-18T03:22:01.510Z,3.63
2019-05-18T03:27:04.813Z,4.63
2019-05-18T03:32:08.128Z,3.77
2019-05-18T03:37:11.410Z,4.33
2019-05-18T03:42:14.713Z,4.40
2019-05-18T03:47:17.997Z,4.30
2019-05-18T03:52:21.305Z,4.20
2019-05-18T03:57:24.586Z,3.90
2019-05-18T04:02:27.879Z,3.80
2019-05-18T04:07:31.251Z,3.67
2019-05-18T04:12:34.559Z,3.77
2019-05-18T04:17:37.871Z,3.93
2019-05-18T04:22:41.182Z,3.57
2019-05-18T04:27:44.499Z,3.60
2019-05-18T04:32:47.788Z,4.87
2019-05-18T04:37:51.107Z,4.83
2019-05-18T04:42:54.408Z,4.40
2019-05-18T04:47:57.692Z,4.10
2019-05-18T04:53:01.001Z,4.20
2019-05-18T04:58:04.281Z,3.67
2019-05-18T05:03:07.574Z,3.97
2019-05-18T05:08:10.867Z,3.10
2019-05-18T05:13:14.143Z,4.10
2019-05-18T05:18:17.435Z,3.93
2019-05-18T05:23:20.785Z,4.83
2019-05-18T05:28:24.082Z,4.70
2019-05-18T05:33:27.356Z,5.27
2019-05-18T05:38:30.664Z,5.00
2019-05-18T05:43:33.972Z,5.13
2019-05-18T05:48:37.262Z,4.67
2019-05-18T05:53:40.547Z,5.10
2019-05-18T05:58:43.833Z,4.90
2019-05-18T06:03:47.148Z,5.83
2019-05-18T06:08:50.453Z,5.65
2019-05-18T06:13:53.748Z,5.40
2019-05-18T06:18:57.041Z,5.70
2019-05-18T06:24:00.360Z,6.07
2019-05-18T06:29:03.643Z,4.30
2019-05-18T06:34:06.975Z,5.33
2019-05-18T06:39:10.289Z,4.87
2019-05-18T06:44:13.599Z,5.57
2019-05-18T06:49:16.874Z,5.27
2019-05-18T06:54:20.185Z,5.67
2019-05-18T06:59:23.495Z,5.37
2019-05-18T07:04:26.764Z,5.27
2019-05-18T07:09:30.066Z,5.10
2019-05-18T07:14:33.371Z,5.83
2019-05-18T07:19:36.658Z,5.47
2019-05-18T07:24:39.975Z,6.00
2019-05-18T07:29:43.281Z,4.40
2019-05-18T07:34:46.568Z,4.30
2019-05-18T07:39:49.862Z,4.57
2019-05-18T07:44:53.184Z,4.93
2019-05-18T07:49:56.473Z,3.53
2019-05-18T07:54:59.784Z,4.97
2019-05-18T08:00:03.447Z,3.80
2019-05-18T08:05:08.411Z,4.10
2019-05-18T08:10:11.794Z,5.07
2019-05-18T08:15:15.851Z,5.13
2019-05-18T08:20:19.201Z,4.73
2019-05-18T08:25:22.492Z,4.30
2019-05-18T08:30:25.787Z,4.30
2019-05-18T08:35:29.097Z,4.97
2019-05-18T08:40:32.398Z,4.80
2019-05-18T08:45:35.688Z,3.77
2019-05-18T08:50:38.966Z,4.07
2019-05-18T08:55:42.275Z,4.53
2019-05-18T09:00:45.828Z,4.33
2019-05-18T09:05:49.107Z,3.53
2019-05-18T09:10:52.447Z,4.60
2019-05-18T09:15:55.792Z,3.80
2019-05-18T09:20:59.078Z,4.43
2019-05-18T09:26:02.508Z,4.50
2019-05-18T09:31:05.892Z,4.67
2019-05-18T09:36:09.254Z,5.00
2019-05-18T09:41:12.496Z,4.50
2019-05-18T09:46:15.837Z,4.70
2019-05-18T09:51:20.039Z,3.83
2019-05-18T09:56:23.385Z,4.27
2019-05-18T10:01:26.674Z,4.60
2019-05-18T10:06:31.552Z,4.80
2019-05-18T10:11:38.445Z,4.93
2019-05-18T10:16:40.066Z,4.40
2019-05-18T10:21:43.309Z,4.23
2019-05-18T10:26:46.721Z,4.03
2019-05-18T10:31:50.006Z,3.73
2019-05-18T10:36:53.306Z,5.70
2019-05-18T10:41:56.615Z,5.23
2019-05-18T10:46:59.967Z,3.93
2019-05-18T10:52:03.252Z,4.10
2019-05-18T10:57:06.537Z,4.03
2019-05-18T11:02:09.916Z,3.23
2019-05-18T11:07:13.258Z,4.37
2019-05-18T11:12:16.559Z,4.50
2019-05-18T11:17:19.868Z,3.60
2019-05-18T11:22:23.171Z,4.90
2019-05-18T11:27:26.487Z,3.63
2019-05-18T11:32:29.789Z,3.40
2019-05-18T11:37:33.112Z,3.70
2019-05-18T11:42:36.501Z,3.90
2019-05-18T11:47:39.892Z,3.47
2019-05-18T11:52:43.390Z,3.23
2019-05-18T11:57:46.723Z,3.30
2019-05-18T12:02:50.023Z,3.23
2019-05-18T12:07:53.329Z,3.10
2019-05-18T12:12:56.638Z,3.07
2019-05-18T12:17:59.938Z,3.37
2019-05-18T12:23:07.738Z,3.07
2019-05-18T12:28:08.413Z,2.37
2019-05-18T12:33:11.760Z,2.90
2019-05-18T12:38:15.054Z,2.83
2019-05-18T12:43:18.357Z,2.40
2019-05-18T12:48:21.677Z,3.00
2019-05-18T12:53:24.978Z,2.17
2019-05-18T12:58:28.274Z,2.67
2019-05-18T13:03:31.576Z,3.13
2019-05-18T13:08:34.866Z,3.20
2019-05-18T13:13:38.164Z,2.40
2019-05-18T13:18:41.463Z,2.70
2019-05-18T13:23:44.781Z,2.57
2019-05-18T13:28:48.097Z,2.80
2019-05-18T13:33:51.409Z,2.80
2019-05-18T13:38:54.692Z,2.43
2019-05-18T13:43:58.059Z,2.40
2019-05-18T13:49:01.438Z,2.50
2019-05-18T13:54:04.687Z,2.57
2019-05-18T13:59:07.986Z,2.70
2019-05-18T14:04:11.332Z,2.40
2019-05-18T14:09:14.676Z,2.60
2019-05-18T14:14:17.997Z,2.40
2019-05-18T14:19:21.283Z,2.40
2019-05-18T14:24:24.651Z,2.60
2019-05-18T14:29:27.937Z,2.50
2019-05-18T14:34:31.249Z,2.87
2019-05-18T14:39:34.595Z,2.70
2019-05-18T14:44:37.980Z,2.80
2019-05-18T14:49:41.294Z,2.60
2019-05-18T14:54:44.722Z,2.13
2019-05-18T14:59:48.032Z,1.97
2019-05-18T15:04:54.145Z,2.13
2019-05-18T15:09:56.551Z,2.30
2019-05-18T15:14:59.853Z,2.40
2019-05-18T15:20:03.816Z,2.10
2019-05-18T15:25:07.437Z,2.07
2019-05-18T15:30:10.945Z,2.37
2019-05-18T15:35:15.204Z,2.50
2019-05-18T15:40:18.703Z,1.70
2019-05-18T15:45:24.669Z,2.27
2019-05-18T15:50:27.220Z,2.03
2019-05-18T15:55:30.663Z,2.10
2019-05-18T16:00:34.041Z,2.40
2019-05-18T16:05:37.435Z,2.10
2019-05-18T16:10:40.755Z,2.30
2019-05-18T16:15:44.129Z,2.17
2019-05-18T16:20:47.538Z,3.00
2019-05-18T16:25:50.963Z,2.40
2019-05-18T16:30:54.379Z,2.37
2019-05-18T16:35:57.747Z,2.23
2019-05-18T16:41:01.157Z,2.60
2019-05-18T16:46:04.549Z,2.47
2019-05-18T16:51:07.841Z,2.70
2019-05-18T16:56:11.257Z,2.43
2019-05-18T17:01:14.678Z,2.20
2019-05-18T17:06:17.996Z,2.70
2019-05-18T17:11:21.301Z,2.53
2019-05-18T17:16:24.676Z,2.27
2019-05-18T17:21:28.035Z,2.33
2019-05-18T17:26:31.330Z,2.60
2019-05-18T17:31:34.656Z,2.43
2019-05-18T17:36:37.968Z,2.57
2019-05-18T17:41:41.554Z,2.20
2019-05-18T17:46:44.859Z,2.73
2019-05-18T17:51:48.164Z,2.43
2019-05-18T17:56:51.479Z,2.60
2019-05-18T18:01:54.937Z,2.47
2019-05-18T18:06:58.553Z,2.83
2019-05-18T18:12:02.206Z,2.73
2019-05-18T18:17:05.574Z,3.00
2019-05-18T18:22:08.961Z,3.03
2019-05-18T18:27:24.595Z,3.10
2019-05-18T18:32:17.523Z,3.17
2019-05-18T18:37:21.077Z,2.77
2019-05-18T18:42:24.485Z,2.87
2019-05-18T18:47:27.842Z,3.47
2019-05-18T18:52:31.141Z,3.63
2019-05-18T18:57:41.242Z,3.98
2019-05-18T19:02:39.774Z,3.60
2019-05-18T19:07:43.064Z,4.57
2019-05-18T19:12:46.435Z,4.53
2019-05-18T19:17:49.737Z,5.70
2019-05-18T19:22:53.212Z,3.47
2019-05-18T19:27:56.493Z,3.40
2019-05-18T19:32:59.824Z,3.67
2019-05-18T19:38:03.125Z,5.33
2019-05-18T19:43:06.404Z,6.13
2019-05-18T19:48:09.708Z,5.40
2019-05-18T19:53:12.990Z,4.67
2019-05-18T19:58:16.350Z,4.40
2019-05-18T20:03:19.834Z,3.75
2019-05-18T20:08:23.133Z,3.20
2019-05-18T20:13:26.426Z,3.00
2019-05-18T20:18:30.357Z,3.20
2019-05-18T20:23:33.675Z,3.93
2019-05-18T20:28:37.004Z,4.03
2019-05-18T20:33:40.644Z,3.70
2019-05-18T20:38:44.256Z,4.20
2019-05-18T20:43:47.602Z,4.83
2019-05-18T20:48:50.922Z,3.70
2019-05-18T20:53:54.228Z,3.43
2019-05-18T20:58:57.535Z,3.10
2019-05-18T21:04:00.838Z,3.57
2019-05-18T21:09:05.041Z,3.43
2019-05-18T21:14:08.417Z,3.23
2019-05-18T21:19:11.806Z,3.80
2019-05-18T21:24:15.127Z,4.00
2019-05-18T21:29:18.424Z,4.23
2019-05-18T21:34:21.744Z,4.08
2019-05-18T21:39:25.036Z,4.13
2019-05-18T21:44:28.334Z,4.33
2019-05-18T21:49:31.624Z,4.23
2019-05-18T21:54:35.121Z,4.70
2019-05-18T21:59:38.435Z,5.23
2019-05-18T22:04:41.768Z,4.27
2019-05-18T22:09:45.101Z,4.90
2019-05-18T22:14:48.403Z,4.73
2019-05-18T22:19:51.694Z,4.90
2019-05-18T22:24:54.989Z,5.87
2019-05-18T22:29:58.292Z,5.07
2019-05-18T22:35:01.714Z,5.33
2019-05-18T22:40:06.354Z,4.93
2019-05-18T22:45:10.410Z,5.30
2019-05-18T22:50:14.028Z,6.17
2019-05-18T22:55:17.593Z,5.53
2019-05-18T23:00:20.945Z,6.10
2019-05-18T23:05:24.262Z,6.57
2019-05-18T23:10:27.569Z,6.77
2019-05-18T23:15:30.925Z,6.13
2019-05-18T23:20:34.256Z,7.27
2019-05-18T23:25:37.551Z,6.67
2019-05-18T23:30:40.856Z,7.40
2019-05-18T23:35:44.220Z,7.47
2019-05-18T23:40:48.017Z,7.10
2019-05-18T23:45:51.320Z,6.13
2019-05-18T23:50:54.631Z,7.78
2019-05-18T23:55:58.112Z,7.13
